Time;durP1;ratioP1;P1;durP2;ratioP2;P2;SDS_P1;SDS_P2;PMS_P1;PMS_P2;Temp;Humidity;BMP_temperature;BMP_pressure;BME280_temperature;BME280_humidity;BME280_pressure;Samples;Min_cycle;Max_cycle;Signal;HPM_P1;HPM_P2
2022/08/20 00:00:23;;;;;;;5.85;5.30;;;;;;;25.57;59.07;94155.97;5031987;28;20281;-63
2022/08/20 00:02:55;;;;;;;5.22;4.82;;;;;;;25.48;60.08;94146.94;5032219;28;20190;-62
2022/08/20 00:05:30;;;;;;;7.40;5.32;;;;;;;25.58;59.54;94162.75;5014132;28;20221;-62
2022/08/20 00:07:57;;;;;;;8.85;5.68;;;;;;;25.50;60.09;94155.31;5014185;28;20264;-63
2022/08/20 00:10:24;;;;;;;6.38;5.53;;;;;;;25.54;59.77;94157.22;5014174;28;20269;-62
2022/08/20 00:12:50;;;;;;;6.22;5.40;;;;;;;25.50;60.55;94152.72;5014255;28;20775;-61
2022/08/20 00:15:20;;;;;;;6.40;5.35;;;;;;;25.51;60.15;94147.25;5014042;28;20300;-62
2022/08/20 00:17:49;;;;;;;9.00;5.63;;;;;;;25.31;61.33;94133.84;5031914;28;20273;-63
2022/08/20 00:20:16;;;;;;;7.28;5.45;;;;;;;25.43;60.61;94144.25;5031765;28;20210;-63
2022/08/20 00:22:42;;;;;;;7.25;5.43;;;;;;;25.27;61.58;94132.72;5031947;28;20194;-63
2022/08/20 00:25:09;;;;;;;6.88;5.78;;;;;;;25.24;61.97;94129.81;5031447;28;20607;-62
2022/08/20 00:27:36;;;;;;;8.77;5.75;;;;;;;25.13;61.97;94118.41;5013875;28;20230;-63
2022/08/20 00:30:05;;;;;;;6.88;6.10;;;;;;;25.13;62.12;94121.00;5031819;28;20208;-63
2022/08/20 00:32:30;;;;;;;8.93;5.15;;;;;;;25.29;61.52;94132.53;5013677;28;20201;-63
2022/08/20 00:34:56;;;;;;;7.53;5.97;;;;;;;25.22;61.77;94134.47;5031403;28;20213;-62
2022/08/20 00:37:21;;;;;;;10.50;5.90;;;;;;;25.17;61.92;94116.94;5038198;23;20241;-63
2022/08/20 00:39:47;;;;;;;9.07;5.88;;;;;;;25.18;62.26;94120.34;5051497;28;20217;-63
2022/08/20 00:42:12;;;;;;;12.80;5.78;;;;;;;25.09;63.46;94104.28;5051237;28;20208;-64
2022/08/20 00:44:44;;;;;;;8.70;5.63;;;;;;;25.11;62.46;94119.69;5051054;28;20224;-62
2022/08/20 00:47:09;;;;;;;10.82;5.38;;;;;;;25.09;63.09;94109.50;5051384;28;20701;-63
2022/08/20 00:49:35;;;;;;;8.23;5.97;;;;;;;24.96;63.82;94105.38;5051156;28;20232;-61
2022/08/20 00:52:16;;;;;;;9.57;6.22;;;;;;;24.97;63.71;94103.53;5051130;28;20280;-63
2022/08/20 00:54:56;;;;;;;9.10;5.55;;;;;;;25.02;63.03;94100.25;5033206;28;20231;-62
2022/08/20 00:57:28;;;;;;;7.53;6.15;;;;;;;24.88;64.24;94084.94;5051092;28;20574;-64
2022/08/20 00:59:55;;;;;;;12.80;6.30;;;;;;;24.86;64.08;94092.19;5051362;28;20209;-62
2022/08/20 01:02:24;;;;;;;9.70;5.63;;;;;;;24.85;64.08;94097.59;5050972;28;20216;-64
2022/08/20 01:04:53;;;;;;;7.30;5.95;;;;;;;24.72;64.77;94088.22;5050846;28;20625;-65
2022/08/20 01:07:22;;;;;;;6.68;5.75;;;;;;;24.57;65.25;94069.72;5051146;28;20640;-64
2022/08/20 01:09:47;;;;;;;10.40;6.10;;;;;;;24.61;65.46;94060.44;5051162;28;20642;-65
2022/08/20 01:12:22;;;;;;;9.25;5.75;;;;;;;24.59;65.72;94062.47;5050902;28;20177;-63
2022/08/20 01:14:47;;;;;;;11.80;6.32;;;;;;;24.49;66.05;94054.47;5032974;28;20230;-62
2022/08/20 01:17:18;;;;;;;8.63;6.30;;;;;;;24.46;66.38;94049.72;5051012;28;20196;-62
2022/08/20 01:19:53;;;;;;;15.05;6.30;;;;;;;24.46;66.49;94047.13;5032855;28;20291;-64
2022/08/20 01:25:52;;;;;;;9.52;6.50;;;;;;;24.34;67.09;94041.16;5050746;28;20224;-61
2022/08/20 01:28:32;;;;;;;6.95;5.97;;;;;;;24.16;67.81;94042.09;5029850;28;20288;-61
2022/08/20 01:30:58;;;;;;;7.15;5.68;;;;;;;24.16;68.06;94044.69;5033101;28;20197;-63
2022/08/20 01:33:23;;;;;;;10.02;6.25;;;;;;;24.26;66.85;94062.28;5050612;28;20178;-63
2022/08/20 01:35:51;;;;;;;9.35;6.32;;;;;;;24.23;67.88;94043.78;5032909;28;20197;-63
2022/08/20 01:38:16;;;;;;;7.70;5.97;;;;;;;24.13;68.03;94057.34;5050418;28;20595;-64
2022/08/20 01:40:54;;;;;;;7.78;6.22;;;;;;;24.23;68.04;94059.34;5050711;28;20201;-63
2022/08/20 01:43:20;;;;;;;8.95;5.90;;;;;;;24.19;67.65;94064.22;5050441;28;20246;-63
2022/08/20 01:45:45;;;;;;;11.02;5.93;;;;;;;24.27;67.22;94070.88;5050443;28;20631;-62
2022/08/20 01:48:14;;;;;;;7.72;5.95;;;;;;;24.08;67.91;94058.03;5050476;28;20189;-62
2022/08/20 01:50:43;;;;;;;8.88;5.90;;;;;;;24.14;68.73;94046.72;5032560;28;20220;-62
2022/08/20 01:53:19;;;;;;;9.73;6.50;;;;;;;24.17;68.77;94045.47;5032593;28;20213;-61
2022/08/20 01:55:45;;;;;;;8.55;6.65;;;;;;;24.13;68.63;94045.16;5053719;28;20185;-62
2022/08/20 01:58:10;;;;;;;7.10;6.00;;;;;;;24.13;69.08;94028.78;5035864;28;20243;-62
2022/08/20 02:00:36;;;;;;;7.93;6.35;;;;;;;24.03;69.30;94031.16;5054210;28;20201;-63
2022/08/20 02:03:02;;;;;;;13.85;6.50;;;;;;;23.96;69.69;94020.03;5053701;28;20200;-64
2022/08/20 02:05:28;;;;;;;13.27;6.38;;;;;;;24.00;69.14;94049.75;5053738;28;20598;-64
2022/08/20 02:07:54;;;;;;;6.13;5.57;;;;;;;23.99;69.59;94041.19;5053866;28;20177;-64
2022/08/20 02:10:22;;;;;;;10.57;6.25;;;;;;;23.95;70.08;94023.66;5053595;28;20281;-63
2022/08/20 02:12:48;;;;;;;7.10;5.68;;;;;;;23.90;70.22;94028.75;5053600;28;20196;-62
2022/08/20 02:15:14;;;;;;;8.18;5.93;;;;;;;23.93;70.05;94042.09;5053381;28;20213;-62
2022/08/20 02:17:40;;;;;;;7.50;6.15;;;;;;;23.83;70.93;94034.06;5053511;28;20182;-62
2022/08/20 02:20:15;;;;;;;6.97;5.82;;;;;;;23.79;70.52;94029.53;5053708;28;20690;-61
2022/08/20 02:22:51;;;;;;;9.63;6.45;;;;;;;23.85;70.52;94032.03;5053598;28;20177;-63
2022/08/20 02:25:18;;;;;;;8.57;6.35;;;;;;;23.83;71.31;94025.47;5053353;28;20282;-62
2022/08/20 02:27:47;;;;;;;9.90;6.32;;;;;;;23.92;69.89;94042.28;5053557;28;20192;-62
2022/08/20 02:30:18;;;;;;;8.15;6.68;;;;;;;23.87;69.86;94049.97;5035775;28;20225;-62
2022/08/20 02:32:43;;;;;;;9.50;5.75;;;;;;;23.82;70.67;94037.66;5053535;28;20174;-63
2022/08/20 02:35:11;;;;;;;6.70;6.00;;;;;;;23.88;70.72;94033.38;5053268;28;20595;-64
2022/08/20 02:37:40;;;;;;;8.60;5.90;;;;;;;23.82;70.37;94039.47;5053328;28;20201;-62
2022/08/20 02:40:08;;;;;;;10.25;6.50;;;;;;;23.83;70.37;94041.06;5053336;28;20300;-62
2022/08/20 02:42:35;;;;;;;9.80;6.75;;;;;;;23.77;70.56;94034.19;5053011;28;20177;-61
2022/08/20 02:45:01;;;;;;;8.43;6.35;;;;;;;23.73;71.51;94027.84;5053044;28;20256;-62
2022/08/20 02:47:27;;;;;;;11.38;6.28;;;;;;;23.64;71.72;94029.97;5053211;28;20212;-64
2022/08/20 02:49:53;;;;;;;9.02;6.78;;;;;;;23.68;71.31;94032.91;5053005;28;20216;-62
2022/08/20 02:52:20;;;;;;;8.05;6.45;;;;;;;23.55;73.15;94017.56;5052300;28;20679;-63
2022/08/20 02:54:47;;;;;;;10.45;6.25;;;;;;;23.53;73.24;94022.19;5034918;28;20587;-63
2022/08/20 02:57:15;;;;;;;6.45;5.85;;;;;;;23.46;73.05;94024.09;5052930;28;20712;-64
2022/08/20 02:59:42;;;;;;;9.38;6.35;;;;;;;23.51;73.59;94034.59;5052681;28;20312;-63
2022/08/20 03:02:08;;;;;;;8.55;5.97;;;;;;;23.51;73.42;94034.59;5052849;28;20182;-63
2022/08/20 03:04:33;;;;;;;12.90;6.70;;;;;;;23.43;73.98;94034.94;5052427;28;20217;-61
2022/08/20 03:06:59;;;;;;;9.07;6.25;;;;;;;23.48;73.77;94046.22;5051741;28;20586;-62
2022/08/20 03:09:24;;;;;;;11.05;6.35;;;;;;;23.51;74.03;94043.19;5052808;28;20215;-62
2022/08/20 03:11:50;;;;;;;11.77;6.68;;;;;;;23.54;73.73;94045.31;5052898;28;20224;-61
2022/08/20 03:14:16;;;;;;;12.13;6.53;;;;;;;23.53;73.60;94045.56;5052554;28;20209;-64
2022/08/20 03:16:42;;;;;;;11.40;6.07;;;;;;;23.50;74.67;94033.81;5034858;28;20259;-65
2022/08/20 03:19:07;;;;;;;8.30;6.13;;;;;;;23.39;74.05;94036.38;5052835;28;20221;-62
2022/08/20 03:21:34;;;;;;;11.10;6.10;;;;;;;23.44;73.91;94036.50;5034779;28;20236;-62
2022/08/20 03:23:59;;;;;;;11.18;6.82;;;;;;;23.41;74.70;94042.94;5052369;28;20339;-62
2022/08/20 03:26:25;;;;;;;9.60;6.45;;;;;;;23.35;75.02;94036.81;5052714;28;20660;-61
2022/08/20 03:28:50;;;;;;;9.25;6.28;;;;;;;23.32;74.97;94037.28;5034422;28;20679;-62
2022/08/20 03:31:16;;;;;;;9.77;6.63;;;;;;;23.41;74.92;94050.72;5034735;28;20656;-64
2022/08/20 03:33:42;;;;;;;10.93;6.45;;;;;;;23.35;75.32;94047.19;5052240;28;20197;-63
2022/08/20 03:36:07;;;;;;;7.78;6.60;;;;;;;23.43;75.16;94053.09;5052464;28;20731;-61
2022/08/20 03:38:33;;;;;;;13.65;6.68;;;;;;;23.34;75.82;94043.03;5052331;28;20216;-63
2022/08/20 03:41:00;;;;;;;8.93;6.97;;;;;;;23.41;75.62;94053.31;5052291;28;20647;-62
2022/08/20 03:43:26;;;;;;;9.48;6.78;;;;;;;23.20;76.32;94044.22;5052084;28;20653;-63
2022/08/20 03:45:52;;;;;;;8.65;7.22;;;;;;;23.29;76.72;94048.06;5034041;28;20218;-62
2022/08/20 03:48:19;;;;;;;12.25;7.15;;;;;;;23.22;76.82;94060.34;5034327;28;20189;-64
2022/08/20 03:50:46;;;;;;;14.15;7.75;;;;;;;23.27;76.50;94068.25;5052020;28;20194;-63
2022/08/20 03:53:13;;;;;;;16.85;6.72;;;;;;;23.33;76.17;94079.59;5052102;28;20197;-62
2022/08/20 03:55:40;;;;;;;11.05;6.78;;;;;;;23.32;75.90;94071.00;5052296;28;20194;-63
2022/08/20 03:58:08;;;;;;;14.02;7.78;;;;;;;23.18;76.41;94061.00;5034005;28;20607;-63
2022/08/20 04:00:39;;;;;;;9.15;6.57;;;;;;;23.26;76.38;94073.66;5034233;28;20288;-63
2022/08/20 04:03:07;;;;;;;11.52;6.70;;;;;;;23.15;76.87;94072.59;5033735;28;20578;-64
2022/08/20 04:05:33;;;;;;;6.85;6.15;;;;;;;23.20;76.56;94074.53;5051635;28;20210;-64
2022/08/20 04:08:01;;;;;;;9.82;6.47;;;;;;;23.42;75.63;94093.00;5033986;28;20675;-62
2022/08/20 04:10:27;;;;;;;10.32;6.78;;;;;;;23.30;76.39;94085.97;5051774;28;20300;-62
2022/08/20 04:12:53;;;;;;;6.78;6.18;;;;;;;23.24;76.26;94086.06;5051851;28;20192;-62
2022/08/20 04:15:19;;;;;;;7.90;6.28;;;;;;;22.85;78.45;94050.28;5051863;28;20698;-63
2022/08/20 04:17:48;;;;;;;9.35;6.60;;;;;;;22.74;78.78;94059.59;5033288;28;20189;-63
2022/08/20 04:20:21;;;;;;;9.05;6.63;;;;;;;22.85;78.68;94071.00;5051616;28;20555;-62
2022/08/20 04:22:47;;;;;;;13.65;7.35;;;;;;;23.04;77.51;94094.13;5033874;28;20182;-62
2022/08/20 04:25:13;;;;;;;9.77;7.25;;;;;;;22.89;78.03;94078.13;5051360;28;20232;-62
2022/08/20 04:27:40;;;;;;;12.65;7.25;;;;;;;22.99;78.44;94088.78;5051416;28;20200;-64
2022/08/20 04:30:09;;;;;;;9.32;7.20;;;;;;;23.09;78.58;94080.47;5033399;28;20237;-63
2022/08/20 04:32:36;;;;;;;11.07;7.55;;;;;;;23.26;77.73;94095.22;5051527;28;20280;-63
2022/08/20 04:35:06;;;;;;;11.05;7.18;;;;;;;23.37;77.03;94111.84;5033404;28;20236;-62
2022/08/20 04:37:32;;;;;;;9.93;7.20;;;;;;;23.27;77.96;94094.19;5051373;28;20582;-61
2022/08/20 04:41:04;;;;;;;11.80;7.93;;;;;;;23.35;77.00;94101.69;5033466;28;20318;-62
2022/08/20 04:42:59;;;;;;;9.50;6.95;;;;;;;23.41;77.89;94096.63;5037966;28;20606;-62
2022/08/20 04:45:24;;;;;;;10.20;7.40;;;;;;;23.53;77.23;94108.63;5051159;28;20225;-62
2022/08/20 04:47:51;;;;;;;10.32;6.82;;;;;;;23.56;76.88;94115.16;5051201;28;20228;-63
2022/08/20 04:50:18;;;;;;;9.25;7.28;;;;;;;23.63;77.03;94115.88;5033110;28;20226;-64
2022/08/20 04:52:43;;;;;;;12.00;7.22;;;;;;;23.55;76.43;94116.19;5051149;28;20192;-62
2022/08/20 04:55:09;;;;;;;12.48;8.00;;;;;;;23.67;75.96;94130.00;5051253;28;20280;-63
2022/08/20 04:57:37;;;;;;;12.73;8.00;;;;;;;23.73;75.25;94142.06;5033289;28;20197;-61
2022/08/20 05:00:09;;;;;;;12.57;7.97;;;;;;;23.75;75.62;94140.06;5033359;28;20209;-62
2022/08/20 05:02:36;;;;;;;10.02;7.55;;;;;;;23.74;75.44;94134.06;5050946;28;20193;-64
2022/08/20 05:05:03;;;;;;;11.38;7.40;;;;;;;23.75;75.58;94127.06;5032703;28;20221;-64
2022/08/20 05:07:29;;;;;;;13.43;7.78;;;;;;;23.66;76.71;94105.81;5051042;28;20238;-63
2022/08/20 05:09:54;;;;;;;8.40;7.40;;;;;;;23.67;77.11;94096.25;5050814;28;20214;-61
2022/08/20 05:12:20;;;;;;;13.93;7.07;;;;;;;23.85;76.48;94119.53;5050805;28;20288;-63
2022/08/20 05:14:46;;;;;;;9.95;7.00;;;;;;;23.89;76.19;94120.66;5050920;28;20193;-61
2022/08/20 05:17:13;;;;;;;9.25;7.10;;;;;;;23.82;77.01;94109.56;5050990;28;20189;-64
2022/08/20 05:19:40;;;;;;;10.18;7.97;;;;;;;24.01;75.38;94134.44;5056783;22;20232;-63
2022/08/20 05:22:05;;;;;;;10.60;7.40;;;;;;;23.99;75.67;94134.69;5032793;28;20185;-62
2022/08/20 05:24:31;;;;;;;11.80;7.55;;;;;;;23.99;76.42;94113.91;5050685;28;20732;-63
2022/08/20 05:26:59;;;;;;;11.82;8.35;;;;;;;24.10;77.14;94109.72;5050555;28;20215;-62
2022/08/20 05:29:26;;;;;;;11.15;7.25;;;;;;;24.18;75.85;94119.78;5050436;28;20209;-62
2022/08/20 05:31:52;;;;;;;11.23;7.43;;;;;;;24.33;75.24;94132.34;5036172;28;20193;-63
2022/08/20 05:34:18;;;;;;;9.00;7.38;;;;;;;24.15;75.73;94118.47;5054469;28;20617;-63
2022/08/20 05:36:47;;;;;;;9.70;8.10;;;;;;;24.15;76.19;94099.47;5054146;28;20185;-62
2022/08/20 05:39:13;;;;;;;11.25;7.22;;;;;;;24.32;76.64;94105.56;5036401;28;20216;-62
2022/08/20 05:41:39;;;;;;;10.73;8.43;;;;;;;24.40;76.30;94114.84;5054228;28;20181;-62
2022/08/20 05:44:09;;;;;;;11.18;7.60;;;;;;;24.43;76.10;94107.38;5054372;28;20201;-61
2022/08/20 05:46:39;;;;;;;13.45;8.50;;;;;;;24.50;76.47;94102.84;5053867;28;20268;-64
2022/08/20 05:49:08;;;;;;;13.80;8.23;;;;;;;24.52;76.73;94100.00;5035970;28;20584;-62
2022/08/20 05:51:35;;;;;;;9.30;7.93;;;;;;;24.53;76.48;94101.59;5035915;28;20276;-62
2022/08/20 05:54:02;;;;;;;10.85;7.60;;;;;;;24.64;75.88;94105.97;5036266;28;20228;-62
2022/08/20 05:56:29;;;;;;;18.40;7.40;;;;;;;24.77;75.01;94124.75;5035722;28;20185;-64
2022/08/20 05:58:55;;;;;;;12.07;7.82;;;;;;;24.75;75.70;94111.19;5054106;28;20593;-62
2022/08/20 06:01:21;;;;;;;16.67;8.80;;;;;;;24.81;74.83;94130.28;5053625;28;20181;-63
2022/08/20 06:06:31;;;;;;;12.63;7.45;;;;;;;25.02;74.63;94121.06;5053710;28;20212;-63
2022/08/20 06:08:56;;;;;;;11.00;7.72;;;;;;;25.03;74.65;94120.81;5035563;28;20217;-64
2022/08/20 06:11:22;;;;;;;14.25;8.52;;;;;;;25.23;74.56;94123.81;5061837;22;20230;-64
2022/08/20 06:13:47;;;;;;;14.60;8.05;;;;;;;25.26;74.11;94127.75;5053413;28;20217;-62
2022/08/20 06:16:13;;;;;;;10.75;7.68;;;;;;;25.22;74.83;94111.84;5053557;28;20569;-64
2022/08/20 06:18:38;;;;;;;12.00;7.68;;;;;;;25.35;73.55;94140.16;5053202;28;20193;-62
2022/08/20 06:21:04;;;;;;;13.43;8.55;;;;;;;25.50;73.22;94155.31;5053349;28;20580;-62
2022/08/20 06:23:30;;;;;;;14.93;7.43;;;;;;;25.52;72.31;94164.47;5053098;28;20233;-64
2022/08/20 06:25:55;;;;;;;14.20;8.25;;;;;;;25.52;72.17;94176.69;5053284;28;20300;-64
2022/08/20 06:28:21;;;;;;;18.67;8.80;;;;;;;25.47;72.48;94163.59;5052971;28;20182;-63
2022/08/20 06:30:46;;;;;;;14.70;8.23;;;;;;;25.49;71.76;94185.00;5035345;28;20652;-63
2022/08/20 06:33:12;;;;;;;12.20;8.45;;;;;;;25.72;70.90;94197.91;5035273;28;20235;-63
2022/08/20 06:35:37;;;;;;;12.63;7.85;;;;;;;25.83;69.55;94223.09;5035291;28;20202;-62
2022/08/20 06:38:04;;;;;;;10.27;7.80;;;;;;;25.65;70.15;94194.66;5053097;28;20184;-63
2022/08/20 06:40:32;;;;;;;14.35;8.05;;;;;;;25.73;70.17;94205.47;5052617;28;20197;-62
2022/08/20 06:42:58;;;;;;;12.18;7.80;;;;;;;25.87;70.39;94200.78;5052904;28;20219;-64
2022/08/20 06:45:30;;;;;;;15.07;10.63;;;;;;;26.09;69.61;94206.91;5058990;22;20356;-63
2022/08/20 06:48:04;;;;;;;22.13;14.50;;;;;;;26.21;69.18;94215.44;5053073;28;20654;-62
2022/08/20 06:50:38;;;;;;;14.23;9.05;;;;;;;26.41;69.51;94204.56;5032788;28;20189;-64
2022/08/20 06:53:12;;;;;;;11.15;7.97;;;;;;;26.45;68.63;94213.47;5033023;28;20270;-62
2022/08/20 06:55:42;;;;;;;18.10;9.13;;;;;;;26.60;68.25;94224.91;5032989;28;20189;-64
2022/08/20 06:58:09;;;;;;;10.85;8.73;;;;;;;26.67;67.91;94224.75;5032846;28;20190;-62
2022/08/20 07:00:36;;;;;;;13.98;8.70;;;;;;;26.68;68.15;94210.69;5039383;23;20221;-63
2022/08/20 07:03:03;;;;;;;12.13;8.05;;;;;;;26.75;68.09;94218.38;5052808;28;20189;-62
2022/08/20 07:05:31;;;;;;;19.30;8.63;;;;;;;26.80;66.95;94232.31;5034682;28;20213;-64
2022/08/20 07:07:57;;;;;;;11.40;7.95;;;;;;;26.94;66.20;94246.59;5052704;28;20216;-62
2022/08/20 07:10:24;;;;;;;15.63;7.95;;;;;;;27.01;66.89;94228.91;5052441;28;20212;-63
2022/08/20 07:12:50;;;;;;;11.05;7.75;;;;;;;27.20;65.48;94265.97;5034696;28;20196;-65
2022/08/20 07:15:18;;;;;;;14.40;8.90;;;;;;;27.19;65.66;94248.75;5052741;28;20198;-62
2022/08/20 07:17:57;;;;;;;12.95;7.60;;;;;;;27.31;64.31;94273.69;5052438;28;20189;-63
2022/08/20 07:20:23;;;;;;;15.60;8.45;;;;;;;27.48;63.82;94281.53;5034394;28;20649;-64
2022/08/20 07:22:48;;;;;;;12.38;7.55;;;;;;;27.45;64.10;94266.34;5052384;28;20721;-63
2022/08/20 07:25:16;;;;;;;8.88;7.55;;;;;;;27.53;62.22;94307.72;5034219;28;20225;-63
2022/08/20 07:27:43;;;;;;;11.18;8.00;;;;;;;27.58;61.94;94307.75;5052075;28;20209;-63
2022/08/20 07:32:57;;;;;;;15.38;8.30;;;;;;;27.65;63.91;94248.31;5052522;28;20197;-62
2022/08/20 07:35:23;;;;;;;12.10;8.38;;;;;;;27.85;63.16;94277.25;5051964;28;20214;-63
2022/08/20 07:37:50;;;;;;;13.55;8.57;;;;;;;27.94;62.73;94275.78;5052376;28;20186;-64
2022/08/20 07:40:23;;;;;;;11.30;8.40;;;;;;;28.03;63.83;94258.66;5034040;28;20710;-63
2022/08/20 07:42:49;;;;;;;9.93;7.63;;;;;;;28.24;62.70;94281.34;5034104;28;20197;-62
2022/08/20 07:45:17;;;;;;;9.70;7.28;;;;;;;28.33;61.34;94301.81;5051868;28;20212;-62
2022/08/20 07:47:43;;;;;;;12.68;7.30;;;;;;;28.24;60.82;94320.56;5034095;28;20671;-63
2022/08/20 07:50:12;;;;;;;9.70;7.75;;;;;;;28.39;60.01;94332.22;5033877;28;20209;-63
2022/08/20 07:52:38;;;;;;;14.85;7.53;;;;;;;28.50;60.61;94320.81;5033108;28;20239;-64
2022/08/20 07:55:06;;;;;;;8.48;7.55;;;;;;;28.64;59.93;94340.34;5051991;28;20648;-63
2022/08/20 07:57:32;;;;;;;12.73;8.43;;;;;;;28.68;59.67;94323.91;5051621;28;20296;-64
2022/08/20 07:59:57;;;;;;;9.20;7.78;;;;;;;28.79;59.15;94332.59;5051712;28;20300;-62
2022/08/20 08:02:24;;;;;;;12.35;8.15;;;;;;;29.01;58.75;94333.28;5051828;28;20184;-64
2022/08/20 08:04:50;;;;;;;9.77;7.55;;;;;;;28.95;57.52;94363.09;5051454;28;20218;-62
2022/08/20 08:07:15;;;;;;;14.45;8.15;;;;;;;29.11;57.44;94356.16;5051599;28;20239;-64
2022/08/20 08:09:43;;;;;;;11.80;7.20;;;;;;;29.28;55.59;94417.88;5033828;28;20718;-62
2022/08/20 08:12:11;;;;;;;7.45;6.75;;;;;;;29.35;57.30;94366.03;5051495;28;20243;-64
2022/08/20 08:14:38;;;;;;;9.63;7.93;;;;;;;29.22;58.44;94339.50;5051571;28;20237;-62
2022/08/20 08:17:05;;;;;;;11.90;7.93;;;;;;;29.44;57.63;94351.44;5033476;28;20186;-63
2022/08/20 08:19:37;;;;;;;10.23;7.97;;;;;;;29.48;58.34;94328.91;5051798;28;20635;-63
2022/08/20 08:22:05;;;;;;;13.98;9.00;;;;;;;29.59;57.92;94335.00;5051436;28;20276;-64
2022/08/20 08:24:30;;;;;;;9.20;7.82;;;;;;;29.73;55.72;94386.75;5051131;28;20592;-64
2022/08/20 08:26:55;;;;;;;12.25;7.97;;;;;;;29.81;56.87;94362.69;5017059;28;20181;-64
2022/08/20 08:29:21;;;;;;;9.13;8.30;;;;;;;29.66;55.81;94380.91;5051435;28;20241;-63
2022/08/20 08:31:47;;;;;;;8.77;7.90;;;;;;;29.64;56.05;94361.22;5033566;28;20790;-63
2022/08/20 08:34:13;;;;;;;11.93;8.00;;;;;;;29.82;55.92;94366.88;5051479;28;20212;-62
2022/08/20 08:36:39;;;;;;;9.30;8.43;;;;;;;29.79;57.09;94332.50;5051350;28;20192;-63
2022/08/20 08:39:05;;;;;;;10.55;7.75;;;;;;;30.17;55.74;94375.91;5051497;28;20274;-61
2022/08/20 08:41:39;;;;;;;10.55;7.25;;;;;;;30.03;53.05;94419.41;5051319;28;20199;-63
2022/08/20 08:44:12;;;;;;;9.95;8.30;;;;;;;29.94;52.72;94420.94;5051745;28;20832;-63
2022/08/20 08:46:42;;;;;;;12.43;8.07;;;;;;;29.84;53.56;94387.56;5051339;28;20232;-63
2022/08/20 08:49:15;;;;;;;9.23;7.53;;;;;;;29.84;54.03;94367.41;5033041;28;20216;-63
2022/08/20 08:51:47;;;;;;;13.45;8.40;;;;;;;29.96;55.07;94345.44;5050983;28;20195;-62
2022/08/20 08:54:20;;;;;;;9.32;7.55;;;;;;;30.11;51.62;94421.53;5051061;28;20284;-62
2022/08/20 08:56:45;;;;;;;10.70;7.65;;;;;;;30.18;52.37;94399.25;5051106;28;20189;-63
2022/08/20 08:59:11;;;;;;;11.32;7.72;;;;;;;30.15;52.65;94393.75;5051009;28;20227;-64
2022/08/20 09:01:45;;;;;;;10.30;7.43;;;;;;;30.05;51.89;94404.19;5033027;28;20185;-63
2022/08/20 09:04:13;;;;;;;10.75;7.32;;;;;;;30.14;52.72;94386.94;5050646;28;20225;-63
2022/08/20 09:06:40;;;;;;;8.85;7.80;;;;;;;30.21;52.34;94375.16;5050658;28;20280;-63
2022/08/20 09:09:18;;;;;;;13.25;8.13;;;;;;;30.35;53.22;94357.91;5051209;28;20204;-64
2022/08/20 09:11:47;;;;;;;8.68;7.88;;;;;;;30.62;52.09;94378.69;5051119;28;20227;-64
2022/08/20 09:14:12;;;;;;;11.82;7.65;;;;;;;30.81;51.10;94392.91;5057238;22;20316;-63
2022/08/20 09:16:38;;;;;;;8.57;7.78;;;;;;;31.27;50.73;94425.28;5032848;28;20264;-63
2022/08/20 09:19:03;;;;;;;9.52;7.85;;;;;;;31.71;49.58;94443.94;5050929;28;20214;-63
2022/08/20 09:21:29;;;;;;;8.82;7.43;;;;;;;31.92;48.55;94477.84;5050952;28;20251;-63
2022/08/20 09:23:54;;;;;;;12.73;7.45;;;;;;;32.12;48.75;94319.91;5032942;28;20209;-63
2022/08/20 09:26:20;;;;;;;13.73;8.80;;;;;;;32.12;48.55;94313.84;5050557;28;20202;-64
2022/08/20 09:28:45;;;;;;;9.85;7.78;;;;;;;32.53;47.53;94333.66;5050838;28;20751;-63
2022/08/20 09:31:11;;;;;;;8.02;7.20;;;;;;;32.75;47.12;94307.69;5032912;28;20189;-64
2022/08/20 09:33:36;;;;;;;7.90;7.00;;;;;;;33.00;45.72;94336.50;5032738;28;20213;-62
2022/08/20 09:36:02;;;;;;;11.05;7.93;;;;;;;32.90;43.37;94368.19;5050718;28;20185;-63
2022/08/20 09:38:27;;;;;;;8.68;7.78;;;;;;;32.56;45.15;94316.53;5050845;28;20197;-64
2022/08/20 09:40:53;;;;;;;10.30;7.38;;;;;;;32.16;45.18;94305.16;5050783;28;20297;-64
2022/08/20 09:43:18;;;;;;;17.63;8.13;;;;;;;32.50;44.99;94294.72;5032502;28;20217;-63
2022/08/20 09:45:44;;;;;;;11.27;7.68;;;;;;;32.63;45.40;94302.00;5032419;28;20828;-65
2022/08/20 09:48:09;;;;;;;8.77;7.55;;;;;;;32.53;43.51;94338.94;5050475;28;20185;-63
2022/08/20 09:50:36;;;;;;;9.25;7.85;;;;;;;32.49;44.35;94300.25;5050344;28;20181;-63
2022/08/20 09:53:04;;;;;;;9.70;7.88;;;;;;;32.91;44.25;94305.72;5032479;28;20193;-63
2022/08/20 09:55:36;;;;;;;8.70;7.80;;;;;;;33.44;44.11;94301.28;5056360;22;20303;-63
2022/08/20 09:58:13;;;;;;;8.45;6.90;;;;;;;33.36;42.21;94339.59;5050365;28;20276;-62
2022/08/20 10:00:39;;;;;;;11.57;7.72;;;;;;;33.35;43.05;94316.16;5030666;28;20186;-64
2022/08/20 10:03:05;;;;;;;7.95;6.95;;;;;;;33.37;41.89;94340.41;5012881;28;20207;-63
2022/08/20 10:05:37;;;;;;;9.20;7.60;;;;;;;33.65;42.42;94326.44;5030328;28;20608;-63
2022/08/20 10:08:08;;;;;;;8.32;7.50;;;;;;;33.21;40.80;94344.25;5030525;28;20659;-62
2022/08/20 10:10:34;;;;;;;10.50;7.75;;;;;;;33.49;40.48;94354.03;5030622;28;20199;-65
2022/08/20 10:12:59;;;;;;;9.77;7.35;;;;;;;33.88;41.87;94310.56;5030109;28;20242;-65
2022/08/20 10:15:25;;;;;;;9.68;7.00;;;;;;;34.18;40.82;94332.41;5031767;28;20333;-64
2022/08/20 10:17:50;;;;;;;8.50;7.07;;;;;;;34.42;40.33;94331.28;5015965;28;20572;-63
2022/08/20 10:20:17;;;;;;;8.15;7.32;;;;;;;34.38;38.93;94367.25;5033496;28;20213;-63
2022/08/20 10:22:42;;;;;;;10.00;7.03;;;;;;;33.85;37.63;94381.59;5015764;28;20190;-64
2022/08/20 10:25:08;;;;;;;10.05;7.45;;;;;;;34.21;38.63;94350.31;5015703;28;20229;-63
2022/08/20 10:27:34;;;;;;;11.45;7.10;;;;;;;34.55;37.08;94394.00;5015577;28;20186;-63
2022/08/20 10:30:00;;;;;;;10.75;6.93;;;;;;;34.83;36.52;94379.06;5015633;28;20279;-63
2022/08/20 10:32:26;;;;;;;8.75;6.72;;;;;;;35.07;36.25;94374.50;5033576;28;20186;-63
2022/08/20 10:34:52;;;;;;;7.88;7.07;;;;;;;35.20;37.05;94346.53;5015610;28;20671;-62
2022/08/20 10:37:20;;;;;;;9.43;8.07;;;;;;;34.85;37.58;94323.28;5033553;28;20178;-62
2022/08/20 10:39:46;;;;;;;12.32;7.68;;;;;;;35.36;38.02;94303.66;5033247;28;20210;-64
2022/08/20 10:42:12;;;;;;;12.05;7.80;;;;;;;35.44;37.96;94302.19;5015647;28;20663;-62
2022/08/20 10:44:38;;;;;;;8.57;7.70;;;;;;;35.95;37.51;94308.16;5015388;28;20574;-63
2022/08/20 10:47:17;;;;;;;8.85;7.80;;;;;;;34.71;38.32;94280.16;5033225;28;20584;-64
2022/08/20 10:49:42;;;;;;;8.55;7.57;;;;;;;34.50;38.57;94277.81;5015289;28;20210;-63
2022/08/20 10:52:08;;;;;;;10.90;7.97;;;;;;;35.13;38.56;94264.16;5033173;28;20293;-63
2022/08/20 10:54:33;;;;;;;8.55;7.68;;;;;;;35.32;37.84;94276.22;5033178;28;20305;-64
2022/08/20 10:57:03;;;;;;;10.18;7.18;;;;;;;35.89;37.42;94290.75;5033017;28;20178;-64
2022/08/20 10:59:29;;;;;;;7.75;7.05;;;;;;;36.13;37.19;94291.34;5015143;28;20217;-63
2022/08/20 11:01:55;;;;;;;11.70;7.85;;;;;;;35.76;36.46;94296.84;5033098;28;20186;-63
2022/08/20 11:04:21;;;;;;;8.25;7.45;;;;;;;35.52;36.75;94293.59;5032769;28;20213;-64
2022/08/20 11:06:47;;;;;;;9.57;7.65;;;;;;;35.67;37.50;94272.16;5015090;28;20283;-64
2022/08/20 11:09:12;;;;;;;7.95;7.20;;;;;;;35.61;38.49;94254.81;5014971;28;20206;-63
2022/08/20 11:11:38;;;;;;;9.05;6.95;;;;;;;34.47;38.46;94257.25;5033470;28;20185;-63
2022/08/20 11:14:03;;;;;;;11.02;7.35;;;;;;;34.31;39.01;94228.72;5032961;28;20236;-64
2022/08/20 11:16:29;;;;;;;8.40;7.55;;;;;;;34.06;39.10;94231.75;5015017;28;20242;-62
2022/08/20 11:18:54;;;;;;;10.52;7.57;;;;;;;33.17;39.85;94198.25;5032902;28;20216;-63
2022/08/20 11:21:20;;;;;;;12.05;7.72;;;;;;;33.20;40.01;94208.22;5033030;28;20198;-63
2022/08/20 11:23:45;;;;;;;14.10;7.57;;;;;;;33.15;40.44;94184.59;5032554;28;20206;-64
2022/08/20 11:26:20;;;;;;;11.38;7.55;;;;;;;33.62;39.71;94195.09;5031974;28;20206;-63
2022/08/20 11:28:46;;;;;;;12.48;7.28;;;;;;;33.75;39.42;94184.66;5014784;28;20237;-63
2022/08/20 11:31:11;;;;;;;7.30;6.60;;;;;;;33.91;39.66;94172.03;5032942;28;20279;-62
2022/08/20 11:33:37;;;;;;;13.38;7.53;;;;;;;34.55;40.19;94177.38;5032379;28;20217;-63
2022/08/20 11:36:02;;;;;;;7.65;6.95;;;;;;;34.88;36.99;94223.06;5033107;28;20201;-64
2022/08/20 11:38:28;;;;;;;8.43;7.47;;;;;;;35.31;36.57;94234.97;5022363;22;20229;-64